»·PEaware :: N71125 O60-KCEC

N71125 :: O60-KCEC

FLIGHT INFORMATION

Flight Status: Arrived
Operator: Privately registered:
United States
More flights under this callsign
Pilot: Christian U. (16550)
Aircraft: CESSNA 172 SKYHAWK
(C172)
More flights by this aircraft type
Origin: O60 Cloverdale Mun
United States
Destination: KCEC McNamara
United States
More flights between these airports :: More routes between these airports
Route: STS V494 ENI V27 CEC
File this flight plan on PilotEdge
Remarks:
Altitude:
(Current/Filed)
10,000ft
Speed:
(Current/Filed)
110kts
Departed: 31-Jul-20 08:03 AM
Arrived: 31-Jul-20 10:06 AM
Distance/Time
Traveled:
189nm/2:03
Distance/Time
To Go:
Arrived

Flight Plot

Page will automatically refresh every two minutes.

Flight plan parsing failed; only flown route is shown


Map Options




Map Legend


Flown Route
Filed Route
Departure Airport
Arrival Airport
Navaid (VOR, NDB)
Fix

Horizontal Profiles

Position Reports

Time Latitude Longitude Heading Altitude Ground
Speed
31-Jul-20 07:52 38.775468 -122.993313 67 272ft 0kts
31-Jul-20 07:53 38.775468 -122.993313 67 272ft 0kts
31-Jul-20 07:54 38.775468 -122.993313 67 272ft 0kts
31-Jul-20 07:55 38.775468 -122.993313 67 272ft 0kts
31-Jul-20 07:56 38.775468 -122.993313 67 272ft 0kts
31-Jul-20 07:57 38.775444 -122.993036 141 270ft 4kts
31-Jul-20 07:58 38.776129 -122.993101 335 270ft 12kts
31-Jul-20 07:59 38.779402 -122.995242 350 273ft 0kts
31-Jul-20 08:00 38.779402 -122.995242 350 273ft 0kts
31-Jul-20 08:01 38.779459 -122.995245 8 273ft 3kts
31-Jul-20 08:02 38.771037 -122.988736 153 445ft 76kts
31-Jul-20 08:03 38.752909 -122.974691 150 1177ft 76kts
31-Jul-20 08:04 38.735136 -122.959847 152 1879ft 76kts
31-Jul-20 08:05 38.716694 -122.946666 157 2546ft 76kts
31-Jul-20 08:06 38.697948 -122.934314 158 3171ft 76kts
31-Jul-20 08:07 38.679069 -122.921895 158 3834ft 76kts
31-Jul-20 08:08 38.660092 -122.909453 158 4483ft 77kts
31-Jul-20 08:09 38.641044 -122.897005 158 5099ft 77kts
31-Jul-20 08:10 38.621876 -122.884499 158 5685ft 77kts
31-Jul-20 08:11 38.602589 -122.871931 159 6240ft 78kts
31-Jul-20 08:12 38.583246 -122.859338 159 6762ft 78kts
31-Jul-20 08:13 38.563833 -122.846706 159 7254ft 78kts
31-Jul-20 08:14 38.544350 -122.834036 159 7718ft 79kts
31-Jul-20 08:15 38.533176 -122.843604 301 8136ft 87kts
31-Jul-20 08:16 38.555646 -122.858429 318 8539ft 91kts
31-Jul-20 08:17 38.576847 -122.876645 319 8941ft 92kts
31-Jul-20 08:18 38.598330 -122.894672 319 9329ft 93kts
31-Jul-20 08:19 38.620027 -122.912726 319 9700ft 93kts
31-Jul-20 08:20 38.642096 -122.931064 320 10009ft 99kts
31-Jul-20 08:21 38.668108 -122.952366 321 10008ft 114kts
31-Jul-20 08:22 38.694624 -122.974504 320 10009ft 113kts
31-Jul-20 08:23 38.721117 -122.996581 320 10009ft 113kts
31-Jul-20 08:24 38.747601 -123.018625 320 10008ft 113kts
31-Jul-20 08:25 38.773975 -123.040582 320 10006ft 112kts
31-Jul-20 08:26 38.800115 -123.062362 320 10003ft 111kts
31-Jul-20 08:27 38.826027 -123.083973 320 9999ft 110kts
31-Jul-20 08:28 38.851659 -123.105370 320 9996ft 109kts
31-Jul-20 08:29 38.876931 -123.126486 320 9991ft 107kts
31-Jul-20 08:30 38.901917 -123.147387 320 9990ft 106kts
31-Jul-20 08:32 38.926608 -123.168074 320 9991ft 106kts
31-Jul-20 08:33 38.951354 -123.188820 319 9991ft 106kts
31-Jul-20 08:34 38.976045 -123.209529 319 9991ft 106kts
31-Jul-20 08:35 39.000801 -123.230305 319 9991ft 106kts
31-Jul-20 08:36 39.025604 -123.251135 319 9991ft 107kts
31-Jul-20 08:37 39.050613 -123.272008 323 9991ft 108kts
31-Jul-20 08:38 39.078206 -123.288631 328 9991ft 109kts
31-Jul-20 08:39 39.106063 -123.304880 328 9989ft 109kts
31-Jul-20 08:40 39.133777 -123.320974 328 9989ft 109kts
31-Jul-20 08:41 39.161371 -123.336996 328 9989ft 108kts
31-Jul-20 08:42 39.188885 -123.352975 328 9989ft 108kts
31-Jul-20 08:43 39.216399 -123.368962 328 9989ft 108kts
31-Jul-20 08:44 39.243930 -123.384972 328 9989ft 108kts
31-Jul-20 08:45 39.271507 -123.401022 328 9989ft 108kts
31-Jul-20 08:46 39.299015 -123.417045 328 9989ft 108kts
31-Jul-20 08:47 39.326878 -123.433227 329 9989ft 111kts
31-Jul-20 08:48 39.355249 -123.449716 329 9989ft 112kts
31-Jul-20 08:49 39.383714 -123.466313 329 9989ft 112kts
31-Jul-20 08:50 39.412201 -123.482955 329 9989ft 112kts
31-Jul-20 08:50 39.435978 -123.496862 329 9989ft 112kts
31-Jul-20 08:52 39.469224 -123.516327 329 9989ft 112kts
31-Jul-20 08:52 39.492924 -123.530216 329 9989ft 112kts
31-Jul-20 08:53 39.521394 -123.546915 329 9989ft 112kts
31-Jul-20 08:55 39.554697 -123.566468 329 9989ft 112kts
31-Jul-20 08:55 39.578445 -123.580423 329 9989ft 112kts
31-Jul-20 08:56 39.606874 -123.597143 329 9989ft 112kts
31-Jul-20 08:57 39.635469 -123.613977 329 9989ft 112kts
31-Jul-20 08:58 39.663909 -123.630734 329 9989ft 112kts
31-Jul-20 08:59 39.692427 -123.647552 329 9989ft 112kts
31-Jul-20 09:00 39.720987 -123.664390 327 10049ft 109kts
31-Jul-20 09:01 39.749551 -123.681316 328 10065ft 115kts
31-Jul-20 09:02 39.778855 -123.698601 328 10065ft 116kts
31-Jul-20 09:03 39.808805 -123.716413 330 10066ft 121kts
31-Jul-20 09:04 39.839981 -123.734841 330 10065ft 124kts
31-Jul-20 09:05 39.871613 -123.753576 331 10070ft 125kts
31-Jul-20 09:06 39.903200 -123.772328 331 10077ft 125kts
31-Jul-20 09:07 39.935071 -123.791272 332 10086ft 126kts
31-Jul-20 09:08 39.967023 -123.810284 332 10096ft 127kts
31-Jul-20 09:09 39.998631 -123.828923 329 10103ft 117kts
31-Jul-20 09:10 40.027692 -123.846331 328 10111ft 114kts
31-Jul-20 09:11 40.056596 -123.863626 328 10111ft 114kts
31-Jul-20 09:12 40.085646 -123.880989 328 10111ft 114kts
31-Jul-20 09:13 40.114597 -123.898299 328 10108ft 114kts
31-Jul-20 09:14 40.143447 -123.915570 328 10108ft 113kts
31-Jul-20 09:15 40.172142 -123.932764 328 10109ft 113kts
31-Jul-20 09:16 40.201063 -123.950126 329 10012ft 120kts
31-Jul-20 09:17 40.230429 -123.967669 328 9980ft 114kts
31-Jul-20 09:18 40.260091 -123.982051 344 9981ft 117kts
31-Jul-20 09:19 40.292236 -123.988791 344 9981ft 117kts
31-Jul-20 09:20 40.324372 -123.995477 344 9981ft 117kts
31-Jul-20 09:21 40.356451 -124.002150 344 9981ft 117kts
31-Jul-20 09:22 40.388640 -124.008851 344 9981ft 117kts
31-Jul-20 09:23 40.420753 -124.015542 344 9981ft 117kts
31-Jul-20 09:24 40.452841 -124.022233 344 9981ft 117kts
31-Jul-20 09:25 40.484996 -124.028946 344 9981ft 117kts
31-Jul-20 09:26 40.517160 -124.035580 344 9981ft 117kts
31-Jul-20 09:27 40.549369 -124.042271 344 9981ft 117kts
31-Jul-20 09:28 40.581602 -124.049012 344 9981ft 117kts
31-Jul-20 09:29 40.613785 -124.055758 344 9981ft 117kts
31-Jul-20 09:30 40.645959 -124.062512 344 9981ft 117kts
31-Jul-20 09:31 40.678158 -124.069277 344 9981ft 117kts
31-Jul-20 09:32 40.710459 -124.076072 344 9981ft 117kts
31-Jul-20 09:33 40.742673 -124.082854 344 9981ft 117kts
31-Jul-20 09:34 40.774858 -124.089637 344 9982ft 117kts
31-Jul-20 09:35 40.807200 -124.096460 344 9982ft 117kts
31-Jul-20 09:36 40.839427 -124.103265 344 9982ft 117kts
31-Jul-20 09:37 40.871714 -124.110090 344 9982ft 117kts
31-Jul-20 09:38 40.904017 -124.116924 344 9982ft 117kts
31-Jul-20 09:39 40.936309 -124.123764 344 9982ft 117kts
31-Jul-20 09:40 40.968603 -124.130609 344 9982ft 117kts
31-Jul-20 09:41 41.000962 -124.137477 344 9982ft 118kts
31-Jul-20 09:42 41.033454 -124.144382 344 9982ft 119kts
31-Jul-20 09:43 41.066248 -124.151357 344 9982ft 119kts
31-Jul-20 09:44 41.099136 -124.158359 343 9983ft 120kts
31-Jul-20 09:45 41.131818 -124.165325 343 9979ft 120kts
31-Jul-20 09:46 41.164790 -124.172372 343 9947ft 123kts
31-Jul-20 09:47 41.201014 -124.179946 345 9448ft 134kts
31-Jul-20 09:48 41.237864 -124.187667 345 8867ft 134kts
31-Jul-20 09:49 41.274529 -124.195448 346 8255ft 132kts
31-Jul-20 09:50 41.310689 -124.203326 345 7642ft 131kts
31-Jul-20 09:51 41.346775 -124.211426 344 7033ft 132kts
31-Jul-20 09:52 41.383045 -124.219313 345 6429ft 133kts
31-Jul-20 09:53 41.419060 -124.227060 345 5913ft 130kts
31-Jul-20 09:54 41.455151 -124.234840 345 5409ft 132kts
31-Jul-20 09:55 41.489871 -124.244840 339 5003ft 128kts
31-Jul-20 09:56 41.524845 -124.258062 339 4206ft 132kts
31-Jul-20 09:57 41.559711 -124.271364 340 3401ft 128kts
31-Jul-20 09:58 41.592810 -124.283998 340 2625ft 119kts
31-Jul-20 09:59 41.625681 -124.286297 8 2122ft 123kts
31-Jul-20 10:00 41.659064 -124.275996 10 1629ft 123kts
31-Jul-20 10:01 41.691998 -124.265803 9 1599ft 120kts
31-Jul-20 10:02 41.723547 -124.255799 10 1074ft 101kts
31-Jul-20 10:03 41.746951 -124.248619 8 650ft 75kts
31-Jul-20 10:04 41.765857 -124.242683 9 222ft 63kts
31-Jul-20 10:05 41.780210 -124.238189 17 54ft 10kts
31-Jul-20 10:06 41.779915 -124.237010 132 55ft 11kts
31-Jul-20 10:07 41.777956 -124.235948 73 53ft 0kts
31-Jul-20 10:08 41.777956 -124.235948 73 53ft 0kts
31-Jul-20 10:09 41.777956 -124.235948 73 53ft 0kts

Navigation Log

Ident Type
Flight plan parsing failed, navigation log unavailable